createdAt,value
2019-02-23T00:01:22.044Z,3.81
2019-02-23T00:03:52.177Z,2.47
2019-02-23T00:06:29.773Z,3.08
2019-02-23T00:08:53.822Z,3.60
2019-02-23T00:11:27.674Z,4.04
2019-02-23T00:13:58.005Z,4.38
2019-02-23T00:16:28.109Z,4.37
2019-02-23T00:18:58.320Z,4.32
2019-02-23T00:21:28.237Z,4.01
2019-02-23T00:23:58.611Z,4.32
2019-02-23T00:26:29.141Z,4.40
2019-02-23T00:28:59.128Z,4.19
2019-02-23T00:31:30.430Z,3.95
2019-02-23T00:34:00.457Z,4.22
2019-02-23T00:36:30.490Z,3.28
2019-02-23T00:39:00.420Z,3.00
2019-02-23T00:41:30.673Z,3.30
2019-02-23T00:44:00.744Z,2.95
2019-02-23T00:46:31.261Z,3.25
2019-02-23T00:49:01.298Z,1.79
2019-02-23T00:51:31.356Z,3.84
2019-02-23T00:54:01.521Z,4.06
2019-02-23T00:56:31.527Z,3.94
2019-02-23T00:59:01.500Z,4.06
2019-02-23T01:01:31.465Z,4.25
2019-02-23T01:04:01.375Z,4.26
2019-02-23T01:06:31.704Z,4.31
2019-02-23T01:09:01.603Z,4.38
2019-02-23T01:11:31.640Z,4.31
2019-02-23T01:14:01.904Z,4.31
2019-02-23T01:16:31.876Z,4.16
2019-02-23T01:19:01.774Z,4.06
2019-02-23T01:21:32.179Z,4.33
2019-02-23T01:24:02.299Z,4.22
2019-02-23T01:26:33.053Z,4.14
2019-02-23T01:29:03.072Z,4.31
2019-02-23T01:31:33.043Z,4.39
2019-02-23T01:34:02.959Z,4.26
2019-02-23T01:36:33.065Z,4.48
2019-02-23T01:39:04.105Z,4.17
2019-02-23T01:41:34.146Z,4.24
2019-02-23T01:44:04.188Z,4.12
2019-02-23T01:46:34.184Z,4.11
2019-02-23T01:49:04.116Z,4.02
2019-02-23T01:51:34.305Z,4.07
2019-02-23T01:54:04.259Z,4.11
2019-02-23T01:56:34.232Z,3.82
2019-02-23T01:59:04.346Z,3.91
2019-02-23T02:01:34.355Z,3.84
2019-02-23T02:04:04.500Z,3.75
2019-02-23T02:06:34.480Z,3.64
2019-02-23T02:09:05.214Z,3.72
2019-02-23T02:11:35.716Z,3.18
2019-02-23T02:14:05.987Z,3.60
2019-02-23T02:16:35.959Z,3.70
2019-02-23T02:19:06.479Z,3.75
2019-02-23T02:21:36.468Z,3.52
2019-02-23T02:24:06.366Z,3.58
2019-02-23T02:26:36.866Z,3.71
2019-02-23T02:29:06.866Z,3.69
2019-02-23T02:31:36.868Z,3.67
2019-02-23T02:34:15.796Z,3.53
2019-02-23T02:36:45.939Z,2.30
2019-02-23T02:39:17.409Z,3.51
2019-02-23T02:41:47.728Z,3.45
2019-02-23T02:44:17.946Z,3.71
2019-02-23T02:46:48.097Z,3.90
2019-02-23T02:49:18.065Z,3.97
2019-02-23T02:51:48.215Z,3.95
2019-02-23T02:54:18.432Z,3.74
2019-02-23T02:56:48.314Z,3.46
2019-02-23T02:59:18.279Z,3.51
2019-02-23T03:01:48.195Z,3.03
2019-02-23T03:04:18.466Z,3.37
2019-02-23T03:06:48.708Z,3.50
2019-02-23T03:09:18.853Z,3.30
2019-02-23T03:11:48.779Z,3.44
2019-02-23T03:14:18.697Z,3.31
2019-02-23T03:16:49.040Z,3.37
2019-02-23T03:19:18.964Z,3.40
2019-02-23T03:21:48.891Z,3.35
2019-02-23T03:24:18.788Z,3.36
2019-02-23T03:26:48.683Z,3.22
2019-02-23T03:29:18.578Z,3.25
2019-02-23T03:31:48.507Z,3.36
2019-02-23T03:34:18.641Z,3.14
2019-02-23T03:36:48.733Z,3.26
2019-02-23T03:39:18.623Z,3.21
2019-02-23T03:41:48.821Z,3.35
2019-02-23T03:44:19.093Z,3.18
2019-02-23T03:46:51.279Z,2.87
2019-02-23T03:49:21.197Z,3.22
2019-02-23T03:51:51.134Z,3.19
2019-02-23T03:54:21.488Z,3.19
2019-02-23T03:56:51.409Z,3.26
2019-02-23T03:59:22.229Z,3.39
2019-02-23T04:01:52.199Z,3.19
2019-02-23T04:04:22.112Z,3.34
2019-02-23T04:06:52.521Z,3.21
2019-02-23T04:09:22.659Z,3.15
2019-02-23T04:11:52.759Z,3.28
2019-02-23T04:14:22.697Z,3.18
2019-02-23T04:16:52.622Z,3.38
2019-02-23T04:19:22.534Z,3.36
2019-02-23T04:21:52.697Z,3.51
2019-02-23T04:24:22.664Z,3.41
2019-02-23T04:26:52.536Z,2.85
2019-02-23T04:29:22.953Z,3.24
2019-02-23T04:31:52.845Z,3.21
2019-02-23T04:34:22.807Z,2.50
2019-02-23T04:36:52.808Z,3.34
2019-02-23T04:39:22.948Z,3.42
2019-02-23T04:41:52.840Z,3.46
2019-02-23T04:44:22.763Z,2.61
2019-02-23T04:46:52.674Z,1.97
2019-02-23T04:49:25.643Z,2.99
2019-02-23T04:51:54.190Z,3.08
2019-02-23T04:54:24.313Z,3.08
2019-02-23T04:56:54.207Z,3.06
2019-02-23T04:59:24.356Z,3.02
2019-02-23T05:01:54.510Z,3.40
2019-02-23T05:04:24.770Z,2.48
2019-02-23T05:06:55.272Z,2.68
2019-02-23T05:09:25.180Z,2.65
2019-02-23T05:11:55.190Z,2.37
2019-02-23T05:14:25.608Z,2.56
2019-02-23T05:16:55.568Z,1.36
2019-02-23T05:19:25.552Z,1.78
2019-02-23T05:21:55.461Z,2.79
2019-02-23T05:24:25.419Z,2.47
2019-02-23T05:26:55.669Z,2.94
2019-02-23T05:29:25.630Z,2.68
2019-02-23T05:31:55.669Z,3.01
2019-02-23T05:34:26.132Z,2.93
2019-02-23T05:36:56.037Z,2.97
2019-02-23T05:39:26.189Z,2.82
2019-02-23T05:41:56.328Z,3.10
2019-02-23T05:44:26.243Z,2.88
2019-02-23T05:46:56.174Z,2.30
2019-02-23T05:49:26.542Z,2.08
2019-02-23T05:51:56.741Z,1.93
2019-02-23T05:54:26.765Z,2.50
2019-02-23T05:56:57.408Z,2.61
2019-02-23T05:59:27.352Z,2.79
2019-02-23T06:01:57.273Z,2.62
2019-02-23T06:04:27.480Z,2.70
2019-02-23T06:06:57.414Z,2.81
2019-02-23T06:09:27.758Z,2.53
2019-02-23T06:11:57.814Z,2.70
2019-02-23T06:14:28.257Z,2.04
2019-02-23T06:16:58.175Z,2.67
2019-02-23T06:19:28.250Z,2.62
2019-02-23T06:21:58.467Z,2.98
2019-02-23T06:24:28.637Z,2.74
2019-02-23T06:27:00.199Z,2.45
2019-02-23T06:29:30.845Z,2.48
2019-02-23T06:32:00.724Z,2.36
2019-02-23T06:34:30.885Z,2.31
2019-02-23T06:37:01.090Z,2.05
2019-02-23T06:39:31.107Z,2.53
2019-02-23T06:42:01.588Z,2.78
2019-02-23T06:44:31.522Z,2.88
2019-02-23T06:47:01.431Z,3.07
2019-02-23T06:49:31.456Z,3.18
2019-02-23T06:52:04.550Z,3.37
2019-02-23T06:54:33.665Z,3.20
2019-02-23T06:57:03.969Z,3.05
2019-02-23T06:59:34.135Z,3.24
2019-02-23T07:02:04.890Z,2.78
2019-02-23T07:04:35.018Z,3.02
2019-02-23T07:07:05.005Z,3.38
2019-02-23T07:09:35.383Z,3.06
2019-02-23T07:12:05.605Z,3.31
2019-02-23T07:14:35.491Z,2.04
2019-02-23T07:17:05.432Z,1.86
2019-02-23T07:19:36.104Z,2.21
2019-02-23T07:22:15.160Z,3.35
2019-02-23T07:24:37.908Z,3.55
2019-02-23T07:27:08.227Z,3.07
2019-02-23T07:29:41.256Z,3.51
2019-02-23T07:32:11.184Z,3.47
2019-02-23T07:34:41.149Z,3.39
2019-02-23T07:37:11.088Z,3.18
2019-02-23T07:39:41.186Z,3.08
2019-02-23T07:42:11.393Z,3.59
2019-02-23T07:44:41.614Z,3.81
2019-02-23T07:47:11.683Z,3.78
2019-02-23T07:49:41.975Z,3.68
2019-02-23T07:52:12.303Z,3.23
2019-02-23T07:54:42.684Z,3.85
2019-02-23T07:57:12.588Z,4.19
2019-02-23T07:59:42.794Z,3.95
2019-02-23T08:02:13.056Z,3.78
2019-02-23T08:04:43.276Z,3.83
2019-02-23T08:07:13.525Z,3.98
2019-02-23T08:09:44.104Z,4.16
2019-02-23T08:12:14.015Z,3.90
2019-02-23T08:14:44.445Z,2.79
2019-02-23T08:17:14.738Z,1.95
2019-02-23T08:19:44.723Z,1.59
2019-02-23T08:22:14.688Z,2.97
2019-02-23T08:24:45.081Z,3.62
2019-02-23T08:27:15.317Z,2.57
2019-02-23T08:29:45.522Z,2.87
2019-02-23T08:32:15.723Z,3.72
2019-02-23T08:34:46.555Z,4.22
2019-02-23T08:37:16.839Z,4.34
2019-02-23T08:39:47.190Z,4.43
2019-02-23T08:42:17.686Z,4.43
2019-02-23T08:44:47.787Z,4.50
2019-02-23T08:47:18.007Z,3.82
2019-02-23T08:49:48.384Z,3.11
2019-02-23T08:52:19.696Z,2.83
2019-02-23T08:54:50.142Z,4.18
2019-02-23T08:57:20.176Z,4.32
2019-02-23T08:59:50.284Z,4.17
2019-02-23T09:02:21.079Z,4.64
2019-02-23T09:04:51.245Z,4.49
2019-02-23T09:07:21.585Z,4.36
2019-02-23T09:09:51.866Z,4.77
2019-02-23T09:12:21.887Z,4.72
2019-02-23T09:14:52.182Z,4.87
2019-02-23T09:17:22.836Z,4.97
2019-02-23T09:19:53.408Z,4.95
2019-02-23T09:22:23.983Z,4.78
2019-02-23T09:24:54.320Z,4.08
2019-02-23T09:27:24.500Z,4.08
2019-02-23T09:29:54.534Z,4.64
2019-02-23T09:32:24.655Z,5.05
2019-02-23T09:34:55.015Z,5.22
2019-02-23T09:37:25.277Z,5.29
2019-02-23T09:39:55.498Z,5.45
2019-02-23T09:42:25.592Z,5.45
2019-02-23T09:44:56.462Z,5.46
2019-02-23T09:47:26.930Z,4.69
2019-02-23T09:49:57.096Z,4.34
2019-02-23T09:52:27.556Z,3.14
2019-02-23T09:55:00.538Z,4.89
2019-02-23T09:57:30.617Z,5.04
2019-02-23T10:00:00.649Z,5.47
2019-02-23T10:02:31.073Z,5.65
2019-02-23T10:05:01.458Z,5.84
2019-02-23T10:07:31.947Z,5.76
2019-02-23T10:10:01.983Z,5.08
2019-02-23T10:12:32.309Z,3.50
2019-02-23T10:15:02.751Z,4.50
2019-02-23T10:17:32.960Z,4.75
2019-02-23T10:20:03.231Z,5.83
2019-02-23T10:22:33.443Z,6.12
2019-02-23T10:25:03.777Z,6.12
2019-02-23T10:27:34.692Z,6.05
2019-02-23T10:30:05.170Z,6.13
2019-02-23T10:32:35.378Z,6.40
2019-02-23T10:35:05.704Z,4.57
2019-02-23T10:37:35.830Z,3.92
2019-02-23T10:40:07.445Z,3.44
2019-02-23T10:42:38.194Z,4.68
2019-02-23T10:45:10.082Z,5.95
2019-02-23T10:47:43.447Z,6.33
2019-02-23T10:50:14.391Z,6.16
2019-02-23T10:52:44.828Z,6.28
2019-02-23T10:55:15.488Z,6.34
2019-02-23T10:57:46.208Z,6.32
2019-02-23T11:00:20.313Z,5.47
2019-02-23T11:02:50.684Z,6.50
2019-02-23T11:05:20.943Z,6.66
2019-02-23T11:07:51.265Z,6.70
2019-02-23T11:10:21.612Z,5.69
2019-02-23T11:12:51.661Z,4.62
2019-02-23T11:15:22.294Z,5.12
2019-02-23T11:17:52.345Z,6.46
2019-02-23T11:20:23.885Z,6.79
2019-02-23T11:22:53.958Z,6.97
2019-02-23T11:25:24.268Z,7.05
2019-02-23T11:27:54.257Z,6.82
2019-02-23T11:30:25.041Z,6.93
2019-02-23T11:32:55.575Z,7.00
2019-02-23T11:35:25.918Z,7.07
2019-02-23T11:37:56.504Z,6.93
2019-02-23T11:40:26.609Z,7.07
2019-02-23T11:42:56.835Z,7.13
2019-02-23T11:45:27.595Z,7.09
2019-02-23T11:47:57.649Z,7.28
2019-02-23T11:50:28.018Z,6.95
2019-02-23T11:52:57.955Z,7.38
2019-02-23T11:55:28.072Z,7.32
2019-02-23T11:57:58.378Z,7.06
2019-02-23T12:00:28.447Z,7.27
2019-02-23T12:02:58.413Z,7.48
2019-02-23T12:05:28.304Z,7.33
2019-02-23T12:07:58.314Z,7.29
2019-02-23T12:10:28.293Z,7.47
2019-02-23T12:12:58.502Z,7.29
2019-02-23T12:15:28.958Z,7.16
2019-02-23T12:17:58.906Z,7.32
2019-02-23T12:20:29.226Z,7.71
2019-02-23T12:22:59.227Z,7.43
2019-02-23T12:25:29.181Z,6.66
2019-02-23T12:27:59.588Z,5.73
2019-02-23T12:30:32.754Z,5.69
2019-02-23T12:33:02.524Z,6.85
2019-02-23T12:35:32.573Z,7.82
2019-02-23T12:38:03.302Z,8.22
2019-02-23T12:40:33.655Z,6.37
2019-02-23T12:43:04.050Z,7.95
2019-02-23T12:45:34.413Z,7.17
2019-02-23T12:48:04.347Z,6.48
2019-02-23T12:50:34.747Z,6.91
2019-02-23T12:53:04.717Z,8.08
2019-02-23T12:55:34.740Z,8.43
2019-02-23T12:58:04.937Z,7.96
2019-02-23T13:00:35.071Z,8.34
2019-02-23T13:03:05.267Z,8.13
2019-02-23T13:05:35.263Z,7.57
2019-02-23T13:08:05.329Z,7.78
2019-02-23T13:10:35.553Z,7.31
2019-02-23T13:14:00.149Z,8.20
2019-02-23T13:16:58.735Z,8.53
2019-02-23T13:19:57.982Z,8.57
2019-02-23T13:23:06.850Z,7.51
2019-02-23T13:26:15.940Z,8.48
2019-02-23T13:29:06.089Z,6.70
2019-02-23T13:32:43.693Z,6.39
2019-02-23T13:36:07.476Z,7.77
2019-02-23T13:39:23.792Z,6.74
2019-02-23T13:43:05.275Z,6.65
2019-02-23T13:46:15.979Z,6.20
2019-02-23T13:49:23.896Z,7.57
2019-02-23T13:52:32.679Z,7.56
2019-02-23T13:56:02.138Z,7.47
2019-02-23T13:59:33.732Z,7.58
2019-02-23T14:02:51.395Z,7.61
2019-02-23T14:06:11.483Z,7.64
2019-02-23T14:09:14.178Z,7.95
2019-02-23T14:12:11.249Z,6.69
2019-02-23T14:14:54.183Z,7.89
2019-02-23T14:18:17.547Z,7.93
2019-02-23T14:21:08.753Z,7.65
2019-02-23T14:24:08.884Z,7.70
2019-02-23T14:27:45.424Z,7.41
2019-02-23T14:31:22.110Z,7.60
2019-02-23T14:35:02.301Z,6.10
2019-02-23T14:38:01.206Z,6.77
2019-02-23T14:41:23.268Z,6.32
2019-02-23T14:44:51.202Z,6.59
2019-02-23T14:48:20.437Z,6.56
2019-02-23T14:51:50.764Z,7.61
2019-02-23T14:55:04.854Z,6.82
2019-02-23T14:58:21.386Z,7.21
2019-02-23T15:01:43.403Z,6.82
2019-02-23T15:05:11.804Z,7.79
2019-02-23T15:08:23.101Z,7.64
2019-02-23T15:12:02.852Z,8.14
2019-02-23T15:15:28.177Z,8.03
2019-02-23T15:18:35.654Z,8.08
2019-02-23T15:21:37.926Z,7.87
2019-02-23T15:24:59.456Z,7.40
2019-02-23T15:28:36.026Z,7.29
2019-02-23T15:31:29.559Z,7.84
2019-02-23T15:34:20.529Z,8.02
2019-02-23T15:37:14.769Z,7.97
2019-02-23T15:40:12.913Z,6.97
2019-02-23T15:43:33.833Z,6.21
2019-02-23T15:46:54.161Z,7.58
2019-02-23T15:49:30.064Z,7.70
2019-02-23T15:52:02.199Z,7.84
2019-02-23T15:54:32.183Z,7.81
2019-02-23T15:57:02.124Z,7.72
2019-02-23T15:59:32.263Z,7.17
2019-02-23T16:02:02.647Z,6.84
2019-02-23T16:04:32.623Z,7.02
2019-02-23T16:07:02.541Z,7.74
2019-02-23T16:09:32.533Z,7.55
2019-02-23T16:12:02.452Z,6.67
2019-02-23T16:14:32.764Z,7.82
2019-02-23T16:17:03.493Z,8.00
2019-02-23T16:19:33.692Z,7.94
2019-02-23T16:22:04.420Z,7.85
2019-02-23T16:24:34.509Z,7.85
2019-02-23T16:27:04.591Z,7.83
2019-02-23T16:29:38.724Z,7.90
2019-02-23T16:32:06.150Z,7.88
2019-02-23T16:34:36.161Z,7.65
2019-02-23T16:37:06.041Z,7.70
2019-02-23T16:39:36.136Z,7.89
2019-02-23T16:42:06.124Z,7.81
2019-02-23T16:44:36.141Z,7.70
2019-02-23T16:47:06.259Z,7.52
2019-02-23T16:49:36.199Z,7.42
2019-02-23T16:52:09.097Z,7.40
2019-02-23T16:54:38.176Z,7.43
2019-02-23T16:57:08.173Z,7.41
2019-02-23T16:59:38.436Z,7.34
2019-02-23T17:02:08.351Z,7.36
2019-02-23T17:04:38.275Z,7.30
2019-02-23T17:07:08.180Z,7.23
2019-02-23T17:09:38.113Z,7.18
2019-02-23T17:12:08.629Z,7.20
2019-02-23T17:14:38.615Z,7.09
2019-02-23T17:17:08.794Z,7.15
2019-02-23T17:19:38.723Z,6.93
2019-02-23T17:22:09.087Z,7.13
2019-02-23T17:24:38.981Z,7.02
2019-02-23T17:27:08.912Z,7.02
2019-02-23T17:29:38.802Z,7.00
2019-02-23T17:32:08.813Z,6.92
2019-02-23T17:34:38.718Z,6.20
2019-02-23T17:37:08.893Z,6.90
2019-02-23T17:39:38.886Z,7.01
2019-02-23T17:42:09.109Z,6.79
2019-02-23T17:44:39.038Z,6.92
2019-02-23T17:47:08.992Z,6.90
2019-02-23T17:49:38.965Z,6.91
2019-02-23T17:52:09.255Z,6.69
2019-02-23T17:54:39.704Z,6.89
2019-02-23T17:57:09.770Z,6.82
2019-02-23T17:59:39.699Z,6.72
2019-02-23T18:02:10.108Z,6.66
2019-02-23T18:04:40.073Z,6.74
2019-02-23T18:07:10.355Z,6.72
2019-02-23T18:09:40.602Z,6.68
2019-02-23T18:12:11.468Z,6.78
2019-02-23T18:14:42.026Z,6.68
2019-02-23T18:17:12.104Z,6.49
2019-02-23T18:19:42.281Z,6.76
2019-02-23T18:22:12.813Z,6.88
2019-02-23T18:24:43.051Z,6.78
2019-02-23T18:27:13.684Z,6.65
2019-02-23T18:29:43.705Z,6.52
2019-02-23T18:32:13.769Z,6.73
2019-02-23T18:34:44.388Z,6.41
2019-02-23T18:37:15.308Z,6.79
2019-02-23T18:39:45.365Z,6.79
2019-02-23T18:42:15.700Z,6.63
2019-02-23T18:44:45.744Z,6.67
2019-02-23T18:47:15.761Z,6.69
2019-02-23T18:49:45.994Z,6.60
2019-02-23T18:52:16.058Z,6.45
2019-02-23T18:54:46.313Z,6.60
2019-02-23T18:57:16.563Z,6.49
2019-02-23T18:59:46.483Z,6.59
2019-02-23T19:02:17.096Z,6.58
2019-02-23T19:04:47.503Z,6.52
2019-02-23T19:07:19.396Z,6.57
2019-02-23T19:09:49.840Z,6.35
2019-02-23T19:12:19.795Z,6.38
2019-02-23T19:14:49.723Z,6.47
2019-02-23T19:17:19.908Z,6.44
2019-02-23T19:19:49.923Z,6.31
2019-02-23T19:22:19.966Z,6.36
2019-02-23T19:24:49.886Z,6.36
2019-02-23T19:27:19.873Z,6.37
2019-02-23T19:29:50.175Z,6.30
2019-02-23T19:32:20.342Z,6.30
2019-02-23T19:34:50.391Z,6.26
2019-02-23T19:37:20.616Z,5.84
2019-02-23T19:39:50.715Z,6.27
2019-02-23T19:42:20.747Z,6.27
2019-02-23T19:44:53.202Z,6.39
2019-02-23T19:47:28.931Z,5.72
2019-02-23T19:50:04.865Z,5.75
2019-02-23T19:52:43.709Z,5.91
2019-02-23T19:55:17.366Z,6.31
2019-02-23T19:57:49.276Z,6.13
2019-02-23T20:00:21.238Z,6.28
2019-02-23T20:02:52.947Z,6.11
2019-02-23T20:05:24.529Z,6.09
2019-02-23T20:07:54.891Z,6.19
2019-02-23T20:10:25.385Z,6.14
2019-02-23T20:12:56.279Z,6.12
2019-02-23T20:15:26.363Z,6.27
2019-02-23T20:17:56.459Z,6.16
2019-02-23T20:20:29.456Z,6.09
2019-02-23T20:23:00.074Z,6.06
2019-02-23T20:25:30.396Z,5.85
2019-02-23T20:28:01.969Z,6.16
2019-02-23T20:30:32.678Z,6.17
2019-02-23T20:33:02.900Z,6.02
2019-02-23T20:35:33.011Z,6.18
2019-02-23T20:38:03.480Z,6.26
2019-02-23T20:40:36.163Z,5.77
2019-02-23T20:43:08.137Z,5.55
2019-02-23T20:45:40.591Z,5.51
2019-02-23T20:48:12.946Z,6.04
2019-02-23T20:50:44.491Z,6.12
2019-02-23T20:53:18.194Z,5.71
2019-02-23T20:55:50.668Z,5.91
2019-02-23T20:58:20.847Z,6.06
2019-02-23T21:00:52.689Z,6.06
2019-02-23T21:03:22.953Z,6.15
2019-02-23T21:05:53.231Z,6.13
2019-02-23T21:08:27.182Z,6.14
2019-02-23T21:10:59.074Z,6.07
2019-02-23T21:13:29.740Z,5.80
2019-02-23T21:16:00.986Z,5.65
2019-02-23T21:18:31.027Z,5.90
2019-02-23T21:21:01.014Z,5.91
2019-02-23T21:23:31.048Z,5.81
2019-02-23T21:26:01.253Z,5.78
2019-02-23T21:28:31.388Z,5.77
2019-02-23T21:31:01.329Z,5.80
2019-02-23T21:33:31.328Z,5.84
2019-02-23T21:36:04.737Z,5.81
2019-02-23T21:38:35.080Z,5.87
2019-02-23T21:41:05.037Z,5.85
2019-02-23T21:43:34.954Z,5.73
2019-02-23T21:46:05.047Z,5.86
2019-02-23T21:48:38.135Z,5.79
2019-02-23T21:51:08.374Z,5.49
2019-02-23T21:53:38.640Z,5.64
2019-02-23T21:56:08.873Z,5.67
2019-02-23T21:58:38.877Z,5.75
2019-02-23T22:01:08.952Z,5.70
2019-02-23T22:03:39.223Z,5.82
2019-02-23T22:06:09.225Z,5.78
2019-02-23T22:08:39.413Z,5.73
2019-02-23T22:11:09.715Z,5.87
2019-02-23T22:13:40.488Z,5.60
2019-02-23T22:16:10.654Z,5.66
2019-02-23T22:18:40.855Z,5.85
2019-02-23T22:21:10.948Z,5.66
2019-02-23T22:23:41.197Z,5.71
2019-02-23T22:26:11.978Z,5.81
2019-02-23T22:28:42.322Z,5.56
2019-02-23T22:31:12.774Z,5.24
2019-02-23T22:33:43.239Z,5.62
2019-02-23T22:36:13.585Z,5.66
2019-02-23T22:38:43.645Z,5.76
2019-02-23T22:41:13.946Z,5.83
2019-02-23T22:43:44.074Z,5.80
2019-02-23T22:46:14.183Z,5.78
2019-02-23T22:48:44.242Z,5.80
2019-02-23T22:51:14.347Z,5.60
2019-02-23T22:53:44.327Z,5.63
2019-02-23T22:56:14.675Z,5.66
2019-02-23T22:58:44.909Z,5.65
2019-02-23T23:01:15.537Z,5.70
2019-02-23T23:03:45.869Z,5.78
2019-02-23T23:06:16.132Z,5.73
2019-02-23T23:08:46.169Z,5.64
2019-02-23T23:11:16.478Z,5.60
2019-02-23T23:13:46.779Z,5.78
2019-02-23T23:16:17.762Z,5.74
2019-02-23T23:18:48.125Z,5.49
2019-02-23T23:21:18.168Z,5.63
2019-02-23T23:23:48.451Z,5.05
2019-02-23T23:26:18.503Z,5.28
2019-02-23T23:28:48.772Z,5.08
2019-02-23T23:31:18.732Z,5.46
2019-02-23T23:33:48.867Z,5.51
2019-02-23T23:36:18.887Z,5.54
2019-02-23T23:38:48.850Z,5.62
2019-02-23T23:41:18.860Z,5.51
2019-02-23T23:43:48.907Z,5.56
2019-02-23T23:46:18.992Z,5.67
2019-02-23T23:48:49.694Z,5.63
2019-02-23T23:51:19.624Z,5.67
2019-02-23T23:53:49.573Z,5.67
2019-02-23T23:56:19.547Z,5.50
2019-02-23T23:58:49.606Z,5.50
